Time;durP1;ratioP1;P1;durP2;ratioP2;P2;SDS_P1;SDS_P2;PMS_P1;PMS_P2;Temp;Humidity;BMP_temperature;BMP_pressure;BME280_temperature;BME280_humidity;BME280_pressure;Samples;Min_cycle;Max_cycle;Signal;HPM_P1;HPM_P2
2021/10/08 00:01:42;;;;;;;9.13;8.07;;;;;;;;;;5087152;28;20322;-58
2021/10/08 00:04:09;;;;;;;9.90;7.93;;;;;;;;;;5090467;28;20168;-58
2021/10/08 00:06:35;;;;;;;9.57;8.57;;;;;;;;;;5088470;28;20199;-58
2021/10/08 00:09:01;;;;;;;10.87;8.23;;;;;;;;;;5090416;28;20529;-58
2021/10/08 00:11:27;;;;;;;9.13;8.03;;;;;;;;;;5101039;28;20184;-58
2021/10/08 00:13:54;;;;;;;9.37;8.47;;;;;;;;;;5091286;28;20653;-58
2021/10/08 00:16:20;;;;;;;9.33;8.40;;;;;;;;;;5106875;28;20179;-58
2021/10/08 00:18:46;;;;;;;8.37;7.53;;;;;;;;;;5110727;28;20179;-59
2021/10/08 00:21:12;;;;;;;12.13;8.00;;;;;;;;;;5108929;28;20202;-58
2021/10/08 00:23:38;;;;;;;9.07;8.00;;;;;;;;;;5111956;28;20183;-58
2021/10/08 00:26:05;;;;;;;9.43;8.10;;;;;;;;;;5104238;28;20515;-59
2021/10/08 00:28:31;;;;;;;7.90;7.10;;;;;;;;;;5107086;28;20226;-59
2021/10/08 00:30:57;;;;;;;9.63;8.27;;;;;;;;;;5109276;28;20290;-58
2021/10/08 00:33:23;;;;;;;9.57;8.67;;;;;;;;;;5111178;28;20206;-58
2021/10/08 00:35:49;;;;;;;9.17;8.27;;;;;;;;;;5108348;28;20546;-59
2021/10/08 00:38:15;;;;;;;11.03;8.47;;;;;;;;;;5111399;28;20206;-59
2021/10/08 00:40:44;;;;;;;8.80;7.90;;;;;;;;;;5110391;28;20210;-58
2021/10/08 00:43:11;;;;;;;9.27;7.33;;;;;;;;;;5110078;28;20568;-58
2021/10/08 00:45:37;;;;;;;9.97;8.17;;;;;;;;;;5085660;28;20175;-58
2021/10/08 00:48:05;;;;;;;9.37;8.10;;;;;;;;;;5090633;28;20186;-59
2021/10/08 00:50:32;;;;;;;8.07;7.33;;;;;;;;;;5107327;28;20256;-58
2021/10/08 00:52:58;;;;;;;8.47;7.57;;;;;;;;;;5103775;28;20544;-58
2021/10/08 00:55:24;;;;;;;8.47;7.47;;;;;;;;;;5107098;28;20726;-58
2021/10/08 00:57:50;;;;;;;10.07;7.97;;;;;;;;;;5107307;28;20693;-58
2021/10/08 01:00:17;;;;;;;7.23;6.53;;;;;;;;;;5105727;28;20210;-58
2021/10/08 01:02:43;;;;;;;9.70;8.53;;;;;;;;;;5091441;28;20470;-58
2021/10/08 01:05:09;;;;;;;8.00;7.20;;;;;;;;;;5106251;28;20209;-58
2021/10/08 01:07:35;;;;;;;8.37;7.57;;;;;;;;;;5092250;28;20304;-58
2021/10/08 01:10:02;;;;;;;8.33;7.30;;;;;;;;;;5106605;28;20619;-58
2021/10/08 01:12:28;;;;;;;9.30;8.13;;;;;;;;;;5105398;28;20180;-58
2021/10/08 01:14:54;;;;;;;8.20;7.30;;;;;;;;;;5087137;28;20234;-59
2021/10/08 01:17:21;;;;;;;8.83;7.33;;;;;;;;;;5106234;28;20179;-58
2021/10/08 01:19:47;;;;;;;8.37;7.47;;;;;;;;;;5100191;28;20290;-58
2021/10/08 01:22:14;;;;;;;9.33;7.57;;;;;;;;;;5109570;28;20551;-59
2021/10/08 01:24:41;;;;;;;9.77;7.60;;;;;;;;;;5109663;28;20559;-59
2021/10/08 01:27:08;;;;;;;8.23;7.43;;;;;;;;;;5107870;28;20220;-58
2021/10/08 01:29:46;;;;;;;9.23;7.40;;;;;;;;;;5107250;28;20194;-59
2021/10/08 01:32:12;;;;;;;7.87;7.07;;;;;;;;;;5104918;28;20237;-58
2021/10/08 01:34:39;;;;;;;9.33;8.30;;;;;;;;;;5109147;28;20176;-58
2021/10/08 01:37:05;;;;;;;7.40;6.70;;;;;;;;;;5107749;28;20637;-58
2021/10/08 01:39:31;;;;;;;7.93;7.13;;;;;;;;;;5089230;28;20334;-58
2021/10/08 01:41:57;;;;;;;9.67;7.90;;;;;;;;;;5107211;28;20190;-58
2021/10/08 01:44:23;;;;;;;9.10;7.23;;;;;;;;;;5108983;28;20171;-58
2021/10/08 01:46:50;;;;;;;7.37;6.63;;;;;;;;;;5104941;28;20211;-58
2021/10/08 01:49:16;;;;;;;8.10;7.30;;;;;;;;;;5108493;28;20201;-58
2021/10/08 01:51:42;;;;;;;8.20;7.47;;;;;;;;;;5108299;28;20605;-58
2021/10/08 01:54:10;;;;;;;8.20;6.90;;;;;;;;;;5103956;28;20203;-58
2021/10/08 01:56:37;;;;;;;8.03;7.23;;;;;;;;;;5104505;28;20171;-58
2021/10/08 01:59:03;;;;;;;7.60;6.80;;;;;;;;;;5091583;28;20638;-58
2021/10/08 02:01:29;;;;;;;8.03;7.23;;;;;;;;;;5097216;28;20252;-59
2021/10/08 02:03:55;;;;;;;7.83;7.03;;;;;;;;;;5108579;28;20355;-58
2021/10/08 02:06:21;;;;;;;8.30;6.70;;;;;;;;;;5087824;28;20741;-58
2021/10/08 02:08:47;;;;;;;9.50;6.83;;;;;;;;;;5109916;28;20534;-58
2021/10/08 02:11:13;;;;;;;7.90;6.87;;;;;;;;;;5104722;28;20179;-58
2021/10/08 02:13:39;;;;;;;7.07;6.37;;;;;;;;;;5089479;28;20559;-58
2021/10/08 02:16:06;;;;;;;9.70;6.87;;;;;;;;;;5107412;28;20194;-58
2021/10/08 02:18:32;;;;;;;8.23;7.20;;;;;;;;;;5108680;28;20180;-58
2021/10/08 02:20:58;;;;;;;7.80;7.00;;;;;;;;;;5087526;28;20262;-58
2021/10/08 02:23:24;;;;;;;8.53;6.73;;;;;;;;;;5108068;28;20171;-58
2021/10/08 02:25:50;;;;;;;9.97;6.77;;;;;;;;;;5103724;28;20186;-58
2021/10/08 02:28:16;;;;;;;7.63;6.33;;;;;;;;;;5108279;28;20648;-58
2021/10/08 02:30:42;;;;;;;7.27;6.37;;;;;;;;;;5104185;28;20677;-58
2021/10/08 02:33:08;;;;;;;7.70;6.93;;;;;;;;;;5105048;28;20847;-58
2021/10/08 02:35:34;;;;;;;8.17;7.00;;;;;;;;;;5104204;28;20503;-59
2021/10/08 02:38:00;;;;;;;8.73;6.73;;;;;;;;;;5088181;28;20726;-58
2021/10/08 02:40:26;;;;;;;7.50;6.30;;;;;;;;;;5086117;28;20206;-59
2021/10/08 02:42:52;;;;;;;8.13;6.87;;;;;;;;;;5108280;28;20179;-58
2021/10/08 02:45:20;;;;;;;6.93;6.23;;;;;;;;;;5107075;28;20175;-58
2021/10/08 02:47:46;;;;;;;7.47;6.77;;;;;;;;;;5108072;28;20211;-58
2021/10/08 02:50:12;;;;;;;7.53;6.23;;;;;;;;;;5102887;28;20186;-58
2021/10/08 02:52:38;;;;;;;7.70;6.33;;;;;;;;;;5106405;28;20198;-58
2021/10/08 02:55:05;;;;;;;8.80;6.90;;;;;;;;;;5085873;28;20190;-58
2021/10/08 02:57:31;;;;;;;9.97;6.93;;;;;;;;;;5103508;28;20183;-58
2021/10/08 02:59:57;;;;;;;8.30;6.33;;;;;;;;;;5104283;28;20214;-58
2021/10/08 03:02:23;;;;;;;7.23;6.50;;;;;;;;;;5086217;28;20179;-58
2021/10/08 03:04:49;;;;;;;7.07;6.37;;;;;;;;;;5104482;28;20183;-58
2021/10/08 03:07:15;;;;;;;10.00;6.43;;;;;;;;;;5084955;28;20215;-58
2021/10/08 03:09:41;;;;;;;6.67;5.80;;;;;;;;;;5089360;28;20183;-58
2021/10/08 03:12:08;;;;;;;7.53;6.73;;;;;;;;;;5105758;28;20519;-58
2021/10/08 03:14:34;;;;;;;9.20;6.80;;;;;;;;;;5105762;28;20357;-58
2021/10/08 03:17:00;;;;;;;12.70;11.70;;;;;;;;;;5106054;28;20187;-58
2021/10/08 03:19:26;;;;;;;9.43;6.13;;;;;;;;;;5105739;28;20278;-58
2021/10/08 03:21:52;;;;;;;7.63;6.50;;;;;;;;;;5108486;28;20179;-58
2021/10/08 03:24:18;;;;;;;6.87;6.27;;;;;;;;;;5113766;28;20272;-58
2021/10/08 03:26:44;;;;;;;7.47;6.63;;;;;;;;;;5107358;27;20172;-58
2021/10/08 03:29:10;;;;;;;7.13;6.10;;;;;;;;;;5113771;28;20435;-59
2021/10/08 03:31:36;;;;;;;12.70;11.80;;;;;;;;;;5110636;28;20186;-58
2021/10/08 03:34:03;;;;;;;8.10;7.00;;;;;;;;;;5115803;28;20231;-58
2021/10/08 03:36:44;;;;;;;8.03;6.33;;;;;;;;;;5093920;28;20183;-59
2021/10/08 03:39:12;;;;;;;6.67;5.97;;;;;;;;;;5108814;28;20243;-58
2021/10/08 03:41:41;;;;;;;10.50;6.63;;;;;;;;;;5105916;28;20249;-58
2021/10/08 03:44:07;;;;;;;7.77;6.40;;;;;;;;;;5095878;28;20314;-58
2021/10/08 03:46:37;;;;;;;7.20;6.00;;;;;;;;;;5092696;28;20179;-58
2021/10/08 03:51:33;;;;;;;5.67;5.07;;;;;;;;;;5110676;28;20684;-58
2021/10/08 03:54:00;;;;;;;7.07;6.37;;;;;;;;;;5112449;28;20191;-58
2021/10/08 03:56:27;;;;;;;7.10;6.43;;;;;;;;;;5110024;27;20378;-58
2021/10/08 03:58:53;;;;;;;6.90;6.17;;;;;;;;;;5115066;28;20235;-58
2021/10/08 04:01:20;;;;;;;8.50;6.10;;;;;;;;;;5108612;28;20202;-58
2021/10/08 04:03:46;;;;;;;6.23;5.37;;;;;;;;;;5115316;28;20198;-58
2021/10/08 04:06:12;;;;;;;8.73;7.90;;;;;;;;;;5110030;28;20175;-58
2021/10/08 04:08:38;;;;;;;8.80;6.03;;;;;;;;;;5113368;28;20174;-59
2021/10/08 04:11:05;;;;;;;6.57;5.97;;;;;;;;;;5107376;28;20198;-58
2021/10/08 04:13:31;;;;;;;7.80;6.53;;;;;;;;;;5113583;28;20553;-58
2021/10/08 04:15:57;;;;;;;6.93;6.27;;;;;;;;;;5085583;28;20355;-58
2021/10/08 04:18:24;;;;;;;7.57;6.40;;;;;;;;;;5110964;28;20185;-58
2021/10/08 04:20:50;;;;;;;9.53;6.33;;;;;;;;;;5105148;28;20245;-58
2021/10/08 04:23:16;;;;;;;8.40;7.60;;;;;;;;;;5110034;28;20509;-58
2021/10/08 04:25:42;;;;;;;6.57;5.40;;;;;;;;;;5086273;28;20175;-59
2021/10/08 04:28:08;;;;;;;9.40;6.33;;;;;;;;;;5107476;28;20171;-58
2021/10/08 04:30:35;;;;;;;7.10;5.10;;;;;;;;;;5089071;28;20210;-58
2021/10/08 04:33:01;;;;;;;6.87;5.53;;;;;;;;;;5086871;28;20263;-58
2021/10/08 04:35:27;;;;;;;6.80;6.03;;;;;;;;;;5098404;28;20266;-58
2021/10/08 04:37:53;;;;;;;6.27;5.60;;;;;;;;;;5106727;28;20642;-57
2021/10/08 04:40:19;;;;;;;5.77;5.23;;;;;;;;;;5088400;28;20202;-58
2021/10/08 04:42:45;;;;;;;6.37;5.53;;;;;;;;;;5108068;28;20182;-58
2021/10/08 04:45:11;;;;;;;6.73;5.13;;;;;;;;;;5102845;28;20188;-58
2021/10/08 04:47:37;;;;;;;6.37;5.33;;;;;;;;;;5109532;28;20597;-58
2021/10/08 04:50:04;;;;;;;5.50;5.00;;;;;;;;;;5109983;28;20626;-58
2021/10/08 04:52:30;;;;;;;7.07;6.40;;;;;;;;;;5108670;28;20333;-58
2021/10/08 04:54:56;;;;;;;7.90;6.27;;;;;;;;;;5109718;28;20566;-58
2021/10/08 04:57:22;;;;;;;6.20;5.60;;;;;;;;;;5089911;28;20286;-58
2021/10/08 04:59:48;;;;;;;7.90;5.77;;;;;;;;;;5085116;28;20213;-58
2021/10/08 05:02:14;;;;;;;6.90;5.70;;;;;;;;;;5102148;28;20709;-58
2021/10/08 05:04:40;;;;;;;6.37;5.33;;;;;;;;;;5101524;28;20585;-58
2021/10/08 05:07:06;;;;;;;6.53;5.80;;;;;;;;;;5101373;28;20625;-58
2021/10/08 05:09:32;;;;;;;7.13;5.90;;;;;;;;;;5102880;28;20917;-58
2021/10/08 05:11:58;;;;;;;7.73;5.03;;;;;;;;;;5081520;28;20638;-58
2021/10/08 05:14:24;;;;;;;6.53;4.90;;;;;;;;;;5100281;28;20254;-59
2021/10/08 05:16:51;;;;;;;5.97;5.00;;;;;;;;;;5101919;28;20211;-58
2021/10/08 05:19:17;;;;;;;7.10;5.10;;;;;;;;;;5102469;28;20175;-58
2021/10/08 05:21:43;;;;;;;6.53;5.93;;;;;;;;;;5083435;28;20329;-58
2021/10/08 05:24:09;;;;;;;6.60;5.00;;;;;;;;;;5104418;28;20175;-58
2021/10/08 05:26:35;;;;;;;6.20;4.83;;;;;;;;;;5082506;28;20373;-58
2021/10/08 05:29:01;;;;;;;6.20;5.60;;;;;;;;;;5103416;28;20175;-58
2021/10/08 05:31:28;;;;;;;5.70;5.10;;;;;;;;;;5101599;28;20183;-58
2021/10/08 05:33:54;;;;;;;5.87;5.10;;;;;;;;;;5104881;28;20226;-58
2021/10/08 05:36:20;;;;;;;6.07;5.23;;;;;;;;;;5083608;28;20653;-58
2021/10/08 05:38:46;;;;;;;5.47;4.97;;;;;;;;;;5084094;28;20210;-58
2021/10/08 05:41:12;;;;;;;5.73;4.70;;;;;;;;;;5084416;28;20700;-58
2021/10/08 05:43:39;;;;;;;6.37;5.37;;;;;;;;;;5105157;28;20198;-58
2021/10/08 05:46:05;;;;;;;6.17;5.53;;;;;;;;;;5106891;27;20211;-58
2021/10/08 05:48:31;;;;;;;5.27;4.77;;;;;;;;;;5104563;28;20186;-58
2021/10/08 05:50:58;;;;;;;5.40;4.90;;;;;;;;;;5079207;28;20735;-58
2021/10/08 05:53:24;;;;;;;5.60;4.70;;;;;;;;;;5084807;28;20227;-58
2021/10/08 05:55:50;;;;;;;5.70;4.67;;;;;;;;;;5100527;28;20179;-58
2021/10/08 05:58:16;;;;;;;5.03;4.53;;;;;;;;;;5100042;28;20194;-58
2021/10/08 06:00:43;;;;;;;5.90;5.40;;;;;;;;;;5081862;28;20229;-58
2021/10/08 06:03:09;;;;;;;4.93;4.17;;;;;;;;;;5066407;28;20180;-58
2021/10/08 06:05:36;;;;;;;6.80;4.80;;;;;;;;;;5083252;28;20602;-58
2021/10/08 06:08:03;;;;;;;6.77;5.33;;;;;;;;;;5103805;28;20175;-58
2021/10/08 06:10:30;;;;;;;5.07;4.57;;;;;;;;;;5085776;28;20194;-58
2021/10/08 06:12:56;;;;;;;6.83;5.33;;;;;;;;;;5088097;28;20243;-58
2021/10/08 06:15:22;;;;;;;5.97;5.33;;;;;;;;;;5075962;28;20778;-58
2021/10/08 06:17:48;;;;;;;5.53;4.60;;;;;;;;;;5082078;28;20180;-59
2021/10/08 06:20:14;;;;;;;5.37;4.50;;;;;;;;;;5078561;28;20199;-58
2021/10/08 06:22:45;;;;;;;4.63;4.23;;;;;;;;;;5078248;28;20675;-58
2021/10/08 06:25:11;;;;;;;7.47;5.23;;;;;;;;;;5080627;28;20223;-59
2021/10/08 06:27:37;;;;;;;4.90;4.13;;;;;;;;;;5080639;28;20180;-58
2021/10/08 06:30:04;;;;;;;6.90;4.80;;;;;;;;;;5072595;28;20199;-58
2021/10/08 06:32:31;;;;;;;5.63;4.77;;;;;;;;;;5077760;28;20242;-58
2021/10/08 06:34:57;;;;;;;6.73;5.53;;;;;;;;;;5077768;28;20191;-59
2021/10/08 06:37:23;;;;;;;5.17;4.57;;;;;;;;;;5082551;28;20188;-59
2021/10/08 06:39:49;;;;;;;5.27;4.73;;;;;;;;;;5082778;28;20215;-58
2021/10/08 06:42:16;;;;;;;4.90;4.40;;;;;;;;;;5082374;28;20183;-58
2021/10/08 06:44:43;;;;;;;5.03;4.53;;;;;;;;;;5076399;28;20180;-58
2021/10/08 06:47:09;;;;;;;5.37;4.50;;;;;;;;;;5080137;28;20180;-58
2021/10/08 06:49:36;;;;;;;6.00;4.17;;;;;;;;;;5070887;28;20267;-59
2021/10/08 06:52:02;;;;;;;7.63;4.50;;;;;;;;;;5080891;28;20184;-58
2021/10/08 06:54:29;;;;;;;7.90;5.07;;;;;;;;;;5080504;28;20176;-58
2021/10/08 06:56:55;;;;;;;4.80;4.30;;;;;;;;;;5079082;28;20179;-59
2021/10/08 06:59:21;;;;;;;6.23;4.67;;;;;;;;;;5080595;28;20618;-59
2021/10/08 07:01:48;;;;;;;5.40;4.90;;;;;;;;;;5077964;28;20230;-58
2021/10/08 07:04:14;;;;;;;4.73;4.33;;;;;;;;;;5080596;28;20668;-59
2021/10/08 07:06:40;;;;;;;5.60;5.10;;;;;;;;;;5079536;28;20226;-58
2021/10/08 07:09:06;;;;;;;6.82;5.38;;;;;;;;;;5059128;28;20441;-59
2021/10/08 07:11:33;;;;;;;4.60;4.17;;;;;;;;;;5078738;28;20176;-59
2021/10/08 07:13:59;;;;;;;5.13;4.63;;;;;;;;;;5084092;28;20222;-59
2021/10/08 07:16:26;;;;;;;5.13;4.70;;;;;;;;;;5080010;28;20680;-59
2021/10/08 07:18:57;;;;;;;5.03;4.53;;;;;;;;;;5100862;28;20267;-58
2021/10/08 07:21:23;;;;;;;5.20;4.70;;;;;;;;;;5083654;28;20289;-59
2021/10/08 07:23:50;;;;;;;5.27;4.77;;;;;;;;;;5087657;28;20636;-57
2021/10/08 07:26:16;;;;;;;5.57;4.70;;;;;;;;;;5091877;28;20515;-58
2021/10/08 07:28:42;;;;;;;6.30;5.47;;;;;;;;;;5105075;28;20175;-58
2021/10/08 07:31:09;;;;;;;5.53;4.60;;;;;;;;;;5086203;28;20187;-58
2021/10/08 07:33:35;;;;;;;5.73;5.23;;;;;;;;;;5109262;28;20239;-58
2021/10/08 07:36:02;;;;;;;5.47;4.87;;;;;;;;;;5098700;28;20184;-59
2021/10/08 07:38:28;;;;;;;7.13;4.90;;;;;;;;;;5107529;28;20645;-58
2021/10/08 07:40:54;;;;;;;5.43;4.83;;;;;;;;;;5100115;28;20194;-58
2021/10/08 07:43:20;;;;;;;5.93;5.13;;;;;;;;;;5081037;28;20187;-58
2021/10/08 07:45:46;;;;;;;4.57;4.17;;;;;;;;;;5098443;28;20191;-58
2021/10/08 07:48:12;;;;;;;5.83;5.27;;;;;;;;;;5100854;28;20183;-58
2021/10/08 07:50:39;;;;;;;8.87;5.60;;;;;;;;;;5102890;28;20210;-58
2021/10/08 07:53:05;;;;;;;5.50;4.90;;;;;;;;;;5082809;28;20275;-58
2021/10/08 07:55:31;;;;;;;5.77;5.17;;;;;;;;;;5102521;28;20551;-59
2021/10/08 07:57:58;;;;;;;6.63;5.30;;;;;;;;;;5097684;28;20544;-59
2021/10/08 08:00:24;;;;;;;6.80;5.33;;;;;;;;;;5080037;28;20207;-58
2021/10/08 08:02:50;;;;;;;6.37;5.20;;;;;;;;;;5079941;28;20346;-59
2021/10/08 08:05:16;;;;;;;5.53;4.90;;;;;;;;;;5081851;28;20644;-59
2021/10/08 08:07:43;;;;;;;6.37;5.77;;;;;;;;;;5101877;28;20179;-59
2021/10/08 08:10:09;;;;;;;6.10;5.03;;;;;;;;;;5101851;28;20175;-58
2021/10/08 08:12:36;;;;;;;6.37;5.27;;;;;;;;;;5101914;28;20198;-58
2021/10/08 08:15:04;;;;;;;5.73;5.10;;;;;;;;;;5086342;28;20226;-59
2021/10/08 08:17:30;;;;;;;5.70;5.10;;;;;;;;;;5084607;28;20179;-59
2021/10/08 08:19:56;;;;;;;5.97;5.37;;;;;;;;;;5103261;28;20199;-58
2021/10/08 08:22:22;;;;;;;5.40;4.90;;;;;;;;;;5104067;28;20179;-59
2021/10/08 08:24:49;;;;;;;12.10;5.53;;;;;;;;;;5104599;28;20566;-59
2021/10/08 08:27:15;;;;;;;6.70;5.30;;;;;;;;;;5083703;28;20266;-59
2021/10/08 08:29:41;;;;;;;6.50;5.03;;;;;;;;;;5105491;28;21358;-59
2021/10/08 08:32:09;;;;;;;5.90;5.37;;;;;;;;;;5103678;28;20712;-59
2021/10/08 08:34:35;;;;;;;5.87;5.27;;;;;;;;;;5098755;28;20631;-59
2021/10/08 08:37:01;;;;;;;7.60;5.87;;;;;;;;;;5086102;28;20749;-59
2021/10/08 08:39:28;;;;;;;8.63;5.23;;;;;;;;;;5087778;28;20179;-59
2021/10/08 08:41:54;;;;;;;6.03;5.27;;;;;;;;;;5103600;28;20696;-58
2021/10/08 08:44:20;;;;;;;6.37;5.47;;;;;;;;;;5085143;28;20164;-59
2021/10/08 08:46:46;;;;;;;6.07;5.20;;;;;;;;;;5084966;28;20614;-59
2021/10/08 08:49:12;;;;;;;5.13;4.63;;;;;;;;;;5103487;28;20178;-59
2021/10/08 08:51:38;;;;;;;5.87;5.37;;;;;;;;;;5084283;28;20179;-59
2021/10/08 08:54:08;;;;;;;5.50;5.00;;;;;;;;;;5105076;28;20258;-58
2021/10/08 08:56:35;;;;;;;6.27;5.27;;;;;;;;;;5100379;28;20629;-58
2021/10/08 08:59:06;;;;;;;7.53;6.17;;;;;;;;;;5086470;28;20174;-58
2021/10/08 09:01:33;;;;;;;6.67;5.97;;;;;;;;;;5104656;28;20199;-58
2021/10/08 09:04:00;;;;;;;7.50;5.97;;;;;;;;;;5103004;28;20175;-58
2021/10/08 09:06:33;;;;;;;9.97;7.13;;;;;;;;;;5090673;28;20183;-58
2021/10/08 09:09:11;;;;;;;8.37;7.37;;;;;;;;;;5106739;28;20261;-58
2021/10/08 09:11:38;;;;;;;9.00;7.33;;;;;;;;;;5101739;28;20520;-58
2021/10/08 09:14:16;;;;;;;8.37;7.50;;;;;;;;;;5083758;28;20215;-58
2021/10/08 09:17:02;;;;;;;12.30;7.93;;;;;;;;;;5085467;28;20675;-58
2021/10/08 09:19:47;;;;;;;9.40;8.07;;;;;;;;;;5097297;28;20702;-58
2021/10/08 09:22:23;;;;;;;9.00;7.33;;;;;;;;;;5102801;28;20190;-58
2021/10/08 09:24:50;;;;;;;9.97;7.80;;;;;;;;;;5101872;28;20183;-57
2021/10/08 09:27:18;;;;;;;9.33;8.20;;;;;;;;;;5099515;28;21154;-58
2021/10/08 09:29:55;;;;;;;8.43;7.07;;;;;;;;;;5101882;28;20186;-57
2021/10/08 09:32:22;;;;;;;9.87;7.43;;;;;;;;;;5100975;28;20233;-58
2021/10/08 09:34:49;;;;;;;8.17;6.13;;;;;;;;;;5102049;28;20266;-58
2021/10/08 09:37:16;;;;;;;7.77;6.50;;;;;;;;;;5104067;28;20228;-57
2021/10/08 09:39:43;;;;;;;6.33;5.60;;;;;;;;;;5103537;28;20190;-58
2021/10/08 09:42:12;;;;;;;6.97;6.30;;;;;;;;;;5103229;28;20232;-57
2021/10/08 09:44:45;;;;;;;7.10;5.53;;;;;;;;;;5102547;28;20214;-58
2021/10/08 09:47:16;;;;;;;6.63;5.93;;;;;;;;;;5087220;28;20711;-58
2021/10/08 09:49:42;;;;;;;6.40;5.80;;;;;;;;;;5102084;28;20189;-58
2021/10/08 09:52:28;;;;;;;6.63;5.50;;;;;;;;;;5103170;28;20183;-58
2021/10/08 09:54:59;;;;;;;6.33;5.73;;;;;;;;;;5101275;28;20183;-58
2021/10/08 09:57:26;;;;;;;7.20;5.40;;;;;;;;;;5100085;28;20186;-58
2021/10/08 09:59:53;;;;;;;7.60;6.10;;;;;;;;;;5102105;28;20531;-57
2021/10/08 10:02:19;;;;;;;6.33;5.00;;;;;;;;;;5085235;28;20187;-57
2021/10/08 10:04:53;;;;;;;11.40;5.73;;;;;;;;;;5101793;28;20261;-57
2021/10/08 10:07:20;;;;;;;6.60;6.00;;;;;;;;;;5103374;28;20306;-57
2021/10/08 10:09:46;;;;;;;6.73;5.40;;;;;;;;;;5101452;28;20623;-57
2021/10/08 10:12:14;;;;;;;6.77;6.07;;;;;;;;;;5103706;28;20178;-57
2021/10/08 10:14:41;;;;;;;6.57;5.87;;;;;;;;;;5083923;28;20301;-57
2021/10/08 10:17:08;;;;;;;8.53;6.03;;;;;;;;;;5103562;28;20189;-57
2021/10/08 10:19:34;;;;;;;7.40;6.33;;;;;;;;;;5103253;28;20182;-57
2021/10/08 10:22:01;;;;;;;7.40;6.07;;;;;;;;;;5102355;28;20696;-57
2021/10/08 10:24:27;;;;;;;7.23;6.53;;;;;;;;;;5098094;28;20189;-59
2021/10/08 10:26:53;;;;;;;8.10;7.37;;;;;;;;;;5099368;28;20187;-59
2021/10/08 10:29:20;;;;;;;8.07;6.20;;;;;;;;;;5099485;28;20179;-59
2021/10/08 10:31:46;;;;;;;7.43;6.47;;;;;;;;;;5101106;28;20225;-59
2021/10/08 10:34:13;;;;;;;8.13;7.00;;;;;;;;;;5088304;28;20288;-59
2021/10/08 10:36:40;;;;;;;7.60;6.30;;;;;;;;;;5106660;28;20182;-59
2021/10/08 10:39:12;;;;;;;9.43;6.67;;;;;;;;;;5102423;28;20183;-59
2021/10/08 10:41:39;;;;;;;8.53;6.63;;;;;;;;;;5101667;28;20203;-59
2021/10/08 10:44:42;;;;;;;6.67;5.90;;;;;;;;;;5098393;27;20176;-59
2021/10/08 10:47:21;;;;;;;7.97;5.77;;;;;;;;;;5108268;28;20590;-59
2021/10/08 10:52:15;;;;;;;6.87;6.03;;;;;;;;;;5090692;28;20547;-59
2021/10/08 10:54:43;;;;;;;7.80;6.83;;;;;;;;;;5082815;28;20192;-59
2021/10/08 10:57:33;;;;;;;6.80;5.37;;;;;;;;;;5100486;28;20179;-59
2021/10/08 11:00:18;;;;;;;8.03;6.73;;;;;;;;;;5032973;28;20208;-59
2021/10/08 11:02:48;;;;;;;7.67;6.93;;;;;;;;;;5084328;28;20645;-59
2021/10/08 11:05:24;;;;;;;8.73;7.33;;;;;;;;;;5083638;28;20189;-59
2021/10/08 11:08:07;;;;;;;7.00;6.30;;;;;;;;;;5082649;28;20175;-59
2021/10/08 11:10:33;;;;;;;7.17;6.50;;;;;;;;;;5101540;28;20665;-59
2021/10/08 11:13:18;;;;;;;7.30;6.60;;;;;;;;;;5101886;28;20547;-59
2021/10/08 11:16:18;;;;;;;8.83;6.53;;;;;;;;;;5101831;28;20218;-59
2021/10/08 11:18:44;;;;;;;7.17;5.97;;;;;;;;;;5089039;28;20279;-59
2021/10/08 11:21:12;;;;;;;6.97;6.03;;;;;;;;;;5081128;28;20217;-59
2021/10/08 11:23:39;;;;;;;6.90;6.17;;;;;;;;;;5082712;28;20193;-59
2021/10/08 11:26:13;;;;;;;8.77;7.13;;;;;;;;;;5082207;28;20190;-59
2021/10/08 11:28:43;;;;;;;7.47;6.37;;;;;;;;;;5084554;28;20775;-59
2021/10/08 11:31:13;;;;;;;12.23;7.40;;;;;;;;;;5097115;28;20783;-59
2021/10/08 11:33:46;;;;;;;10.63;6.93;;;;;;;;;;5072589;28;20263;-59
2021/10/08 11:36:17;;;;;;;9.03;6.90;;;;;;;;;;5086528;28;20210;-59
2021/10/08 11:38:44;;;;;;;8.37;7.00;;;;;;;;;;5105538;28;20215;-59
2021/10/08 11:41:14;;;;;;;9.10;6.50;;;;;;;;;;5083231;28;20203;-59
2021/10/08 11:43:41;;;;;;;9.63;7.53;;;;;;;;;;5076761;28;20642;-59
2021/10/08 11:46:22;;;;;;;6.30;5.70;;;;;;;;;;5091094;28;20224;-59
2021/10/08 11:49:01;;;;;;;7.93;5.90;;;;;;;;;;5105091;28;20182;-59
2021/10/08 11:51:27;;;;;;;9.07;6.50;;;;;;;;;;5090323;28;20199;-59
2021/10/08 11:53:57;;;;;;;5.90;5.30;;;;;;;;;;5108372;28;20241;-59
2021/10/08 11:56:26;;;;;;;5.93;5.43;;;;;;;;;;5106704;28;20270;-59
2021/10/08 11:58:54;;;;;;;6.83;6.23;;;;;;;;;;5092534;28;20186;-59
2021/10/08 12:01:23;;;;;;;7.13;6.53;;;;;;;;;;5097884;28;20673;-59
2021/10/08 12:03:50;;;;;;;7.63;5.60;;;;;;;;;;5088778;28;20268;-59
2021/10/08 12:06:30;;;;;;;6.47;5.87;;;;;;;;;;5103104;27;20233;-59
2021/10/08 12:08:58;;;;;;;6.80;6.03;;;;;;;;;;5085893;28;20175;-59
2021/10/08 12:11:27;;;;;;;6.57;5.23;;;;;;;;;;5082561;28;20224;-59
2021/10/08 12:13:56;;;;;;;6.33;5.73;;;;;;;;;;5069463;28;20189;-59
2021/10/08 12:16:42;;;;;;;6.17;5.07;;;;;;;;;;5101197;28;20171;-59
2021/10/08 12:19:10;;;;;;;6.53;5.20;;;;;;;;;;5087545;28;20263;-59
2021/10/08 12:21:41;;;;;;;6.17;5.53;;;;;;;;;;5083831;28;20207;-60
2021/10/08 12:24:08;;;;;;;5.73;5.10;;;;;;;;;;5100024;28;20183;-60
2021/10/08 12:26:38;;;;;;;5.47;4.87;;;;;;;;;;5084232;28;20183;-60
2021/10/08 12:29:07;;;;;;;5.60;4.30;;;;;;;;;;5104388;28;20171;-61
2021/10/08 12:31:45;;;;;;;15.67;5.27;;;;;;;;;;5103011;28;20179;-61
2021/10/08 12:34:11;;;;;;;11.27;5.17;;;;;;;;;;5104162;28;20570;-60
2021/10/08 12:36:37;;;;;;;18.43;5.07;;;;;;;;;;5101604;27;20195;-58
2021/10/08 12:39:09;;;;;;;4.33;3.47;;;;;;;;;;5106747;28;20630;-59
2021/10/08 12:41:49;;;;;;;3.50;3.20;;;;;;;;;;5083884;28;20206;-59
2021/10/08 12:44:18;;;;;;;5.37;3.27;;;;;;;;;;5103057;28;20171;-59
2021/10/08 12:47:13;;;;;;;10.50;4.60;;;;;;;;;;5085863;28;20204;-58
2021/10/08 12:49:55;;;;;;;4.40;4.00;;;;;;;;;;5085427;28;20262;-59
2021/10/08 12:52:51;;;;;;;9.37;4.37;;;;;;;;;;5105594;28;20175;-59
2021/10/08 12:55:19;;;;;;;5.23;4.00;;;;;;;;;;5067547;28;20187;-59
2021/10/08 12:57:59;;;;;;;4.77;4.17;;;;;;;;;;5083185;28;20187;-58
2021/10/08 13:00:32;;;;;;;4.10;3.20;;;;;;;;;;5084009;28;20214;-58
2021/10/08 13:02:58;;;;;;;6.00;3.53;;;;;;;;;;5104154;28;20186;-58
2021/10/08 13:05:24;;;;;;;13.17;4.37;;;;;;;;;;5104022;28;20236;-58
2021/10/08 13:08:12;;;;;;;4.83;3.50;;;;;;;;;;5103816;28;20183;-58
2021/10/08 13:10:57;;;;;;;4.43;3.60;;;;;;;;;;5082360;28;20286;-58
2021/10/08 13:13:24;;;;;;;6.57;3.60;;;;;;;;;;5103084;28;20175;-58
2021/10/08 13:15:50;;;;;;;4.47;3.73;;;;;;;;;;5100722;28;20629;-58
2021/10/08 13:18:17;;;;;;;7.37;4.10;;;;;;;;;;5100798;28;20183;-58
2021/10/08 13:20:45;;;;;;;4.20;3.80;;;;;;;;;;5100813;28;20575;-58
2021/10/08 13:23:11;;;;;;;4.33;3.93;;;;;;;;;;5068054;28;20184;-58
2021/10/08 13:25:39;;;;;;;4.00;3.60;;;;;;;;;;5102501;28;20186;-58
2021/10/08 13:28:08;;;;;;;4.93;4.00;;;;;;;;;;5102454;28;20267;-58
2021/10/08 13:30:35;;;;;;;5.77;4.13;;;;;;;;;;5101887;28;20178;-58
2021/10/08 13:33:01;;;;;;;5.03;3.57;;;;;;;;;;5103311;28;20213;-58
2021/10/08 13:35:28;;;;;;;3.57;3.27;;;;;;;;;;5101367;28;20238;-58
2021/10/08 13:37:54;;;;;;;3.97;3.43;;;;;;;;;;5104250;28;20187;-58
2021/10/08 13:40:21;;;;;;;5.50;3.87;;;;;;;;;;5084535;28;20631;-58
2021/10/08 13:42:47;;;;;;;4.73;3.37;;;;;;;;;;5102500;28;20195;-58
2021/10/08 13:45:13;;;;;;;3.93;3.60;;;;;;;;;;5103738;28;20172;-58
2021/10/08 13:47:40;;;;;;;5.00;4.50;;;;;;;;;;5101889;28;20183;-58
2021/10/08 13:50:07;;;;;;;5.53;3.83;;;;;;;;;;5102969;28;20183;-58
2021/10/08 13:52:33;;;;;;;4.70;3.80;;;;;;;;;;5102278;28;20183;-58
2021/10/08 13:54:59;;;;;;;4.87;3.77;;;;;;;;;;5102757;28;20180;-58
2021/10/08 13:57:25;;;;;;;4.93;4.00;;;;;;;;;;5101046;28;20370;-58
2021/10/08 13:59:51;;;;;;;4.87;4.47;;;;;;;;;;5095749;28;20195;-58
2021/10/08 14:02:21;;;;;;;5.00;4.60;;;;;;;;;;5096757;28;20221;-56
2021/10/08 14:04:52;;;;;;;3.47;3.17;;;;;;;;;;5092818;28;20179;-56
2021/10/08 14:12:32;;;;;;;5.07;3.90;;;;;;;;;;5094182;28;20677;-56
2021/10/08 14:14:58;;;;;;;3.53;3.17;;;;;;;;;;5098343;28;20264;-56
2021/10/08 14:17:24;;;;;;;4.37;3.30;;;;;;;;;;5095999;28;20187;-59
2021/10/08 14:19:50;;;;;;;5.47;3.47;;;;;;;;;;5098376;28;20533;-56
2021/10/08 14:22:17;;;;;;;4.57;4.27;;;;;;;;;;5098136;28;20654;-57
2021/10/08 14:24:43;;;;;;;4.67;3.23;;;;;;;;;;5100591;28;20664;-57
2021/10/08 14:27:09;;;;;;;4.03;3.30;;;;;;;;;;5097470;28;20179;-57
2021/10/08 14:29:35;;;;;;;6.60;4.37;;;;;;;;;;5100030;28;20692;-57
2021/10/08 14:32:01;;;;;;;3.17;2.83;;;;;;;;;;5103343;28;20208;-56
2021/10/08 14:34:27;;;;;;;5.67;3.47;;;;;;;;;;5099387;28;20190;-57
2021/10/08 14:36:53;;;;;;;3.60;3.27;;;;;;;;;;5105647;28;20538;-57
2021/10/08 14:39:19;;;;;;;4.30;4.00;;;;;;;;;;5104394;28;20191;-57
2021/10/08 14:41:45;;;;;;;3.67;3.30;;;;;;;;;;5095090;28;20203;-58
2021/10/08 14:44:11;;;;;;;5.53;3.77;;;;;;;;;;5101904;28;20171;-57
2021/10/08 14:46:37;;;;;;;7.63;4.17;;;;;;;;;;5098205;28;20214;-59
2021/10/08 14:49:03;;;;;;;6.87;3.57;;;;;;;;;;5102521;28;20245;-57
2021/10/08 14:51:31;;;;;;;4.80;4.30;;;;;;;;;;5098216;28;20583;-57
2021/10/08 14:54:11;;;;;;;4.03;3.63;;;;;;;;;;5100506;28;20213;-57
2021/10/08 14:59:21;;;;;;;4.47;4.07;;;;;;;;;;5100560;28;20185;-58
2021/10/08 15:01:47;;;;;;;4.30;3.90;;;;;;;;;;5099254;28;20203;-58